sensor_id;sensor_type;location;lat;lon;timestamp;P1;durP1;ratioP1;P2;durP2;ratioP2
43620;SDS011;29213;50.770;7.298;2023-08-21T00:01:14;8.57;;;7.68;;
43620;SDS011;29213;50.770;7.298;2023-08-21T00:03:40;8.85;;;7.50;;
43620;SDS011;29213;50.770;7.298;2023-08-21T00:06:05;8.27;;;7.40;;
43620;SDS011;29213;50.770;7.298;2023-08-21T00:08:31;8.02;;;7.22;;
43620;SDS011;29213;50.770;7.298;2023-08-21T00:10:56;8.70;;;7.15;;
43620;SDS011;29213;50.770;7.298;2023-08-21T00:13:21;9.70;;;7.28;;
43620;SDS011;29213;50.770;7.298;2023-08-21T00:15:47;8.05;;;7.22;;
43620;SDS011;29213;50.770;7.298;2023-08-21T00:18:12;8.32;;;7.13;;
43620;SDS011;29213;50.770;7.298;2023-08-21T00:20:38;8.40;;;7.00;;
43620;SDS011;29213;50.770;7.298;2023-08-21T00:23:04;11.02;;;6.93;;
43620;SDS011;29213;50.770;7.298;2023-08-21T00:25:29;8.82;;;7.40;;
43620;SDS011;29213;50.770;7.298;2023-08-21T00:27:55;8.02;;;7.22;;
43620;SDS011;29213;50.770;7.298;2023-08-21T00:30:20;8.48;;;7.57;;
43620;SDS011;29213;50.770;7.298;2023-08-21T00:32:45;10.13;;;6.97;;
43620;SDS011;29213;50.770;7.298;2023-08-21T00:35:11;8.48;;;7.13;;
43620;SDS011;29213;50.770;7.298;2023-08-21T00:37:36;11.25;;;7.38;;
43620;SDS011;29213;50.770;7.298;2023-08-21T00:40:02;9.93;;;7.65;;
43620;SDS011;29213;50.770;7.298;2023-08-21T00:42:27;12.13;;;8.07;;
43620;SDS011;29213;50.770;7.298;2023-08-21T00:44:53;8.20;;;7.10;;
43620;SDS011;29213;50.770;7.298;2023-08-21T00:47:18;7.57;;;6.78;;
43620;SDS011;29213;50.770;7.298;2023-08-21T00:49:44;7.15;;;6.45;;
43620;SDS011;29213;50.770;7.298;2023-08-21T00:52:13;8.02;;;6.95;;
43620;SDS011;29213;50.770;7.298;2023-08-21T00:54:39;10.85;;;7.75;;
43620;SDS011;29213;50.770;7.298;2023-08-21T00:57:05;8.52;;;7.32;;
43620;SDS011;29213;50.770;7.298;2023-08-21T00:59:31;7.70;;;6.90;;
43620;SDS011;29213;50.770;7.298;2023-08-21T01:01:57;8.43;;;6.93;;
43620;SDS011;29213;50.770;7.298;2023-08-21T01:04:22;7.88;;;7.10;;
43620;SDS011;29213;50.770;7.298;2023-08-21T01:06:49;8.63;;;7.30;;
43620;SDS011;29213;50.770;7.298;2023-08-21T01:09:29;8.90;;;7.65;;
43620;SDS011;29213;50.770;7.298;2023-08-21T01:14:45;8.32;;;7.22;;
43620;SDS011;29213;50.770;7.298;2023-08-21T01:17:19;7.78;;;6.97;;
43620;SDS011;29213;50.770;7.298;2023-08-21T01:19:48;10.17;;;7.83;;
43620;SDS011;29213;50.770;7.298;2023-08-21T01:22:14;9.65;;;8.30;;
43620;SDS011;29213;50.770;7.298;2023-08-21T01:24:40;8.38;;;7.57;;
43620;SDS011;29213;50.770;7.298;2023-08-21T01:27:05;8.80;;;7.90;;
43620;SDS011;29213;50.770;7.298;2023-08-21T01:29:31;9.02;;;7.75;;
43620;SDS011;29213;50.770;7.298;2023-08-21T01:34:39;11.10;;;8.23;;
43620;SDS011;29213;50.770;7.298;2023-08-21T01:37:07;9.00;;;8.10;;
43620;SDS011;29213;50.770;7.298;2023-08-21T01:39:33;8.77;;;7.88;;
43620;SDS011;29213;50.770;7.298;2023-08-21T01:41:59;8.10;;;7.30;;
43620;SDS011;29213;50.770;7.298;2023-08-21T01:44:24;9.68;;;7.97;;
43620;SDS011;29213;50.770;7.298;2023-08-21T01:46:51;8.88;;;7.68;;
43620;SDS011;29213;50.770;7.298;2023-08-21T01:49:17;8.88;;;7.75;;
43620;SDS011;29213;50.770;7.298;2023-08-21T01:51:44;8.60;;;7.70;;
43620;SDS011;29213;50.770;7.298;2023-08-21T01:54:09;8.57;;;7.68;;
43620;SDS011;29213;50.770;7.298;2023-08-21T01:56:35;8.90;;;8.00;;
43620;SDS011;29213;50.770;7.298;2023-08-21T01:59:01;9.43;;;7.95;;
43620;SDS011;29213;50.770;7.298;2023-08-21T02:01:27;9.75;;;8.10;;
43620;SDS011;29213;50.770;7.298;2023-08-21T02:03:52;8.75;;;7.55;;
43620;SDS011;29213;50.770;7.298;2023-08-21T02:06:18;9.30;;;7.88;;
43620;SDS011;29213;50.770;7.298;2023-08-21T02:08:43;9.18;;;7.55;;
43620;SDS011;29213;50.770;7.298;2023-08-21T02:11:09;9.68;;;7.32;;
43620;SDS011;29213;50.770;7.298;2023-08-21T02:13:34;10.07;;;7.60;;
43620;SDS011;29213;50.770;7.298;2023-08-21T02:15:59;8.73;;;7.72;;
43620;SDS011;29213;50.770;7.298;2023-08-21T02:18:25;9.25;;;7.57;;
43620;SDS011;29213;50.770;7.298;2023-08-21T02:20:50;8.30;;;7.50;;
43620;SDS011;29213;50.770;7.298;2023-08-21T02:23:16;7.90;;;7.18;;
43620;SDS011;29213;50.770;7.298;2023-08-21T02:25:41;8.35;;;7.45;;
43620;SDS011;29213;50.770;7.298;2023-08-21T02:28:07;8.00;;;7.20;;
43620;SDS011;29213;50.770;7.298;2023-08-21T02:30:32;7.95;;;7.10;;
43620;SDS011;29213;50.770;7.298;2023-08-21T02:32:58;9.57;;;7.68;;
43620;SDS011;29213;50.770;7.298;2023-08-21T02:35:24;8.52;;;7.35;;
43620;SDS011;29213;50.770;7.298;2023-08-21T02:37:49;7.85;;;7.15;;
43620;SDS011;29213;50.770;7.298;2023-08-21T02:40:14;8.90;;;8.00;;
43620;SDS011;29213;50.770;7.298;2023-08-21T02:42:40;8.05;;;7.25;;
43620;SDS011;29213;50.770;7.298;2023-08-21T02:45:05;8.45;;;7.55;;
43620;SDS011;29213;50.770;7.298;2023-08-21T02:47:35;7.97;;;7.18;;
43620;SDS011;29213;50.770;7.298;2023-08-21T02:50:05;8.95;;;7.97;;
43620;SDS011;29213;50.770;7.298;2023-08-21T02:52:32;9.40;;;7.30;;
43620;SDS011;29213;50.770;7.298;2023-08-21T02:54:59;9.13;;;7.57;;
43620;SDS011;29213;50.770;7.298;2023-08-21T02:57:26;7.97;;;7.05;;
43620;SDS011;29213;50.770;7.298;2023-08-21T02:59:52;9.10;;;7.55;;
43620;SDS011;29213;50.770;7.298;2023-08-21T03:02:18;9.45;;;7.90;;
43620;SDS011;29213;50.770;7.298;2023-08-21T03:04:44;9.27;;;7.68;;
43620;SDS011;29213;50.770;7.298;2023-08-21T03:07:10;9.32;;;7.50;;
43620;SDS011;29213;50.770;7.298;2023-08-21T03:09:36;8.70;;;7.85;;
43620;SDS011;29213;50.770;7.298;2023-08-21T03:12:02;9.02;;;8.13;;
43620;SDS011;29213;50.770;7.298;2023-08-21T03:14:28;11.85;;;8.02;;
43620;SDS011;29213;50.770;7.298;2023-08-21T03:16:54;9.55;;;8.40;;
43620;SDS011;29213;50.770;7.298;2023-08-21T03:19:19;8.77;;;7.88;;
43620;SDS011;29213;50.770;7.298;2023-08-21T03:21:45;8.13;;;7.32;;
43620;SDS011;29213;50.770;7.298;2023-08-21T03:24:10;9.25;;;8.18;;
43620;SDS011;29213;50.770;7.298;2023-08-21T03:26:35;8.30;;;7.47;;
43620;SDS011;29213;50.770;7.298;2023-08-21T03:29:01;8.25;;;7.38;;
43620;SDS011;29213;50.770;7.298;2023-08-21T03:31:27;9.00;;;7.97;;
43620;SDS011;29213;50.770;7.298;2023-08-21T03:33:52;8.98;;;7.97;;
43620;SDS011;29213;50.770;7.298;2023-08-21T03:36:18;8.77;;;7.90;;
43620;SDS011;29213;50.770;7.298;2023-08-21T03:38:44;9.43;;;7.85;;
43620;SDS011;29213;50.770;7.298;2023-08-21T03:41:10;9.52;;;7.82;;
43620;SDS011;29213;50.770;7.298;2023-08-21T03:43:36;8.57;;;7.55;;
43620;SDS011;29213;50.770;7.298;2023-08-21T03:46:01;9.55;;;8.07;;
43620;SDS011;29213;50.770;7.298;2023-08-21T03:48:27;9.65;;;7.85;;
43620;SDS011;29213;50.770;7.298;2023-08-21T03:50:52;8.57;;;7.68;;
43620;SDS011;29213;50.770;7.298;2023-08-21T03:53:18;9.75;;;8.25;;
43620;SDS011;29213;50.770;7.298;2023-08-21T03:55:44;8.90;;;8.00;;
43620;SDS011;29213;50.770;7.298;2023-08-21T03:58:09;8.13;;;7.32;;
43620;SDS011;29213;50.770;7.298;2023-08-21T04:00:35;8.43;;;7.63;;
43620;SDS011;29213;50.770;7.298;2023-08-21T04:03:00;8.73;;;7.80;;
43620;SDS011;29213;50.770;7.298;2023-08-21T04:05:26;8.73;;;7.78;;
43620;SDS011;29213;50.770;7.298;2023-08-21T04:07:51;8.55;;;7.65;;
43620;SDS011;29213;50.770;7.298;2023-08-21T04:10:17;8.75;;;7.53;;
43620;SDS011;29213;50.770;7.298;2023-08-21T04:12:43;9.43;;;7.85;;
43620;SDS011;29213;50.770;7.298;2023-08-21T04:15:08;10.32;;;7.63;;
43620;SDS011;29213;50.770;7.298;2023-08-21T04:17:35;9.73;;;8.20;;
43620;SDS011;29213;50.770;7.298;2023-08-21T04:20:00;9.02;;;8.10;;
43620;SDS011;29213;50.770;7.298;2023-08-21T04:22:26;8.90;;;8.00;;
43620;SDS011;29213;50.770;7.298;2023-08-21T04:24:51;10.25;;;8.77;;
43620;SDS011;29213;50.770;7.298;2023-08-21T04:27:17;9.25;;;8.32;;
43620;SDS011;29213;50.770;7.298;2023-08-21T04:29:42;8.70;;;7.72;;
43620;SDS011;29213;50.770;7.298;2023-08-21T04:32:08;10.13;;;8.32;;
43620;SDS011;29213;50.770;7.298;2023-08-21T04:34:33;9.57;;;8.50;;
43620;SDS011;29213;50.770;7.298;2023-08-21T04:36:59;9.98;;;8.98;;
43620;SDS011;29213;50.770;7.298;2023-08-21T04:39:25;10.10;;;8.98;;
43620;SDS011;29213;50.770;7.298;2023-08-21T04:41:51;9.63;;;8.63;;
43620;SDS011;29213;50.770;7.298;2023-08-21T04:44:17;11.48;;;9.30;;
43620;SDS011;29213;50.770;7.298;2023-08-21T04:46:43;9.90;;;8.88;;
43620;SDS011;29213;50.770;7.298;2023-08-21T04:49:09;10.02;;;8.57;;
43620;SDS011;29213;50.770;7.298;2023-08-21T04:51:34;8.88;;;8.05;;
43620;SDS011;29213;50.770;7.298;2023-08-21T04:54:01;9.45;;;8.45;;
43620;SDS011;29213;50.770;7.298;2023-08-21T04:56:26;9.30;;;8.40;;
43620;SDS011;29213;50.770;7.298;2023-08-21T04:58:55;9.55;;;8.55;;
43620;SDS011;29213;50.770;7.298;2023-08-21T05:01:21;10.75;;;8.43;;
43620;SDS011;29213;50.770;7.298;2023-08-21T05:03:47;10.65;;;8.93;;
43620;SDS011;29213;50.770;7.298;2023-08-21T05:06:12;10.60;;;8.90;;
43620;SDS011;29213;50.770;7.298;2023-08-21T05:08:38;10.55;;;9.32;;
43620;SDS011;29213;50.770;7.298;2023-08-21T05:11:04;9.63;;;8.73;;
43620;SDS011;29213;50.770;7.298;2023-08-21T05:13:29;9.95;;;8.95;;
43620;SDS011;29213;50.770;7.298;2023-08-21T05:15:56;10.57;;;9.07;;
43620;SDS011;29213;50.770;7.298;2023-08-21T05:18:23;10.27;;;8.55;;
43620;SDS011;29213;50.770;7.298;2023-08-21T05:20:49;8.52;;;7.70;;
43620;SDS011;29213;50.770;7.298;2023-08-21T05:23:18;8.70;;;7.80;;
43620;SDS011;29213;50.770;7.298;2023-08-21T05:25:44;12.82;;;10.27;;
43620;SDS011;29213;50.770;7.298;2023-08-21T05:28:11;10.38;;;9.20;;
43620;SDS011;29213;50.770;7.298;2023-08-21T05:30:36;9.77;;;8.43;;
43620;SDS011;29213;50.770;7.298;2023-08-21T05:33:03;11.52;;;9.57;;
43620;SDS011;29213;50.770;7.298;2023-08-21T05:35:33;9.38;;;8.43;;
43620;SDS011;29213;50.770;7.298;2023-08-21T05:38:01;10.95;;;9.68;;
43620;SDS011;29213;50.770;7.298;2023-08-21T05:40:31;10.50;;;9.07;;
43620;SDS011;29213;50.770;7.298;2023-08-21T05:42:57;9.35;;;8.27;;
43620;SDS011;29213;50.770;7.298;2023-08-21T05:45:23;9.82;;;8.52;;
43620;SDS011;29213;50.770;7.298;2023-08-21T05:47:48;9.70;;;8.70;;
43620;SDS011;29213;50.770;7.298;2023-08-21T05:50:14;9.98;;;8.85;;
43620;SDS011;29213;50.770;7.298;2023-08-21T05:52:39;9.30;;;8.30;;
43620;SDS011;29213;50.770;7.298;2023-08-21T05:55:05;8.73;;;7.93;;
43620;SDS011;29213;50.770;7.298;2023-08-21T05:57:31;9.25;;;8.25;;
43620;SDS011;29213;50.770;7.298;2023-08-21T05:59:56;9.38;;;8.48;;
43620;SDS011;29213;50.770;7.298;2023-08-21T06:02:21;9.25;;;8.35;;
43620;SDS011;29213;50.770;7.298;2023-08-21T06:04:47;8.98;;;8.07;;
43620;SDS011;29213;50.770;7.298;2023-08-21T06:07:12;9.00;;;8.10;;
43620;SDS011;29213;50.770;7.298;2023-08-21T06:09:38;8.00;;;7.07;;
43620;SDS011;29213;50.770;7.298;2023-08-21T06:12:04;13.18;;;9.65;;
43620;SDS011;29213;50.770;7.298;2023-08-21T06:14:30;11.63;;;9.20;;
43620;SDS011;29213;50.770;7.298;2023-08-21T06:17:02;9.98;;;8.48;;
43620;SDS011;29213;50.770;7.298;2023-08-21T06:19:28;8.77;;;7.93;;
43620;SDS011;29213;50.770;7.298;2023-08-21T06:21:54;8.90;;;8.00;;
43620;SDS011;29213;50.770;7.298;2023-08-21T06:24:21;8.70;;;7.80;;
43620;SDS011;29213;50.770;7.298;2023-08-21T06:26:46;9.85;;;8.65;;
43620;SDS011;29213;50.770;7.298;2023-08-21T06:29:14;8.77;;;7.88;;
43620;SDS011;29213;50.770;7.298;2023-08-21T06:31:40;9.18;;;8.02;;
43620;SDS011;29213;50.770;7.298;2023-08-21T06:34:05;10.38;;;7.78;;
43620;SDS011;29213;50.770;7.298;2023-08-21T06:36:42;9.75;;;8.75;;
43620;SDS011;29213;50.770;7.298;2023-08-21T06:39:08;10.40;;;9.30;;
43620;SDS011;29213;50.770;7.298;2023-08-21T06:41:34;11.40;;;9.13;;
43620;SDS011;29213;50.770;7.298;2023-08-21T06:44:00;10.63;;;9.52;;
43620;SDS011;29213;50.770;7.298;2023-08-21T06:46:26;9.35;;;8.40;;
43620;SDS011;29213;50.770;7.298;2023-08-21T06:48:52;9.30;;;8.30;;
43620;SDS011;29213;50.770;7.298;2023-08-21T06:51:17;8.32;;;7.50;;
43620;SDS011;29213;50.770;7.298;2023-08-21T06:53:43;9.23;;;7.72;;
43620;SDS011;29213;50.770;7.298;2023-08-21T06:56:09;8.93;;;8.02;;
43620;SDS011;29213;50.770;7.298;2023-08-21T06:58:52;8.82;;;7.93;;
43620;SDS011;29213;50.770;7.298;2023-08-21T07:01:20;9.48;;;7.95;;
43620;SDS011;29213;50.770;7.298;2023-08-21T07:04:25;8.60;;;7.35;;
43620;SDS011;29213;50.770;7.298;2023-08-21T07:06:50;8.52;;;7.63;;
43620;SDS011;29213;50.770;7.298;2023-08-21T07:09:16;9.00;;;7.25;;
43620;SDS011;29213;50.770;7.298;2023-08-21T07:11:47;8.00;;;7.20;;
43620;SDS011;29213;50.770;7.298;2023-08-21T07:14:12;8.32;;;7.40;;
43620;SDS011;29213;50.770;7.298;2023-08-21T07:16:39;8.65;;;7.75;;
43620;SDS011;29213;50.770;7.298;2023-08-21T07:19:05;8.27;;;7.47;;
43620;SDS011;29213;50.770;7.298;2023-08-21T07:21:30;8.90;;;7.82;;
43620;SDS011;29213;50.770;7.298;2023-08-21T07:23:56;11.32;;;10.23;;
43620;SDS011;29213;50.770;7.298;2023-08-21T07:26:22;10.88;;;9.02;;
43620;SDS011;29213;50.770;7.298;2023-08-21T07:28:47;9.45;;;8.35;;
43620;SDS011;29213;50.770;7.298;2023-08-21T07:31:13;8.82;;;7.78;;
43620;SDS011;29213;50.770;7.298;2023-08-21T07:33:38;8.90;;;7.75;;
43620;SDS011;29213;50.770;7.298;2023-08-21T07:36:04;8.35;;;7.07;;
43620;SDS011;29213;50.770;7.298;2023-08-21T07:38:30;9.05;;;8.00;;
43620;SDS011;29213;50.770;7.298;2023-08-21T07:41:03;9.60;;;7.78;;
43620;SDS011;29213;50.770;7.298;2023-08-21T07:43:33;9.88;;;7.80;;
43620;SDS011;29213;50.770;7.298;2023-08-21T07:46:03;8.15;;;7.18;;
43620;SDS011;29213;50.770;7.298;2023-08-21T07:48:29;8.25;;;7.00;;
43620;SDS011;29213;50.770;7.298;2023-08-21T07:50:55;8.30;;;7.50;;
43620;SDS011;29213;50.770;7.298;2023-08-21T07:53:21;8.40;;;7.45;;
43620;SDS011;29213;50.770;7.298;2023-08-21T07:55:48;8.23;;;7.32;;
43620;SDS011;29213;50.770;7.298;2023-08-21T07:58:13;7.47;;;6.65;;
43620;SDS011;29213;50.770;7.298;2023-08-21T08:00:40;8.45;;;7.55;;
43620;SDS011;29213;50.770;7.298;2023-08-21T08:03:05;7.60;;;6.88;;
43620;SDS011;29213;50.770;7.298;2023-08-21T08:05:31;8.05;;;7.22;;
43620;SDS011;29213;50.770;7.298;2023-08-21T08:07:57;7.82;;;7.03;;
43620;SDS011;29213;50.770;7.298;2023-08-21T08:10:23;8.20;;;7.40;;
43620;SDS011;29213;50.770;7.298;2023-08-21T08:12:49;8.00;;;7.20;;
43620;SDS011;29213;50.770;7.298;2023-08-21T08:15:14;8.48;;;7.68;;
43620;SDS011;29213;50.770;7.298;2023-08-21T08:17:39;8.15;;;7.30;;
43620;SDS011;29213;50.770;7.298;2023-08-21T08:20:05;8.90;;;8.00;;
43620;SDS011;29213;50.770;7.298;2023-08-21T08:22:31;10.30;;;7.60;;
43620;SDS011;29213;50.770;7.298;2023-08-21T08:24:57;7.97;;;7.18;;
43620;SDS011;29213;50.770;7.298;2023-08-21T08:27:22;8.60;;;7.72;;
43620;SDS011;29213;50.770;7.298;2023-08-21T08:29:47;8.45;;;7.38;;
43620;SDS011;29213;50.770;7.298;2023-08-21T08:32:14;8.73;;;7.78;;
43620;SDS011;29213;50.770;7.298;2023-08-21T08:34:39;8.88;;;7.53;;
43620;SDS011;29213;50.770;7.298;2023-08-21T08:37:05;7.90;;;7.07;;
43620;SDS011;29213;50.770;7.298;2023-08-21T08:39:30;8.07;;;6.80;;
43620;SDS011;29213;50.770;7.298;2023-08-21T08:41:57;9.68;;;7.90;;
43620;SDS011;29213;50.770;7.298;2023-08-21T08:44:27;8.30;;;7.13;;
43620;SDS011;29213;50.770;7.298;2023-08-21T08:46:53;8.45;;;6.55;;
43620;SDS011;29213;50.770;7.298;2023-08-21T08:49:19;8.80;;;7.03;;
43620;SDS011;29213;50.770;7.298;2023-08-21T08:51:47;7.85;;;6.30;;
43620;SDS011;29213;50.770;7.298;2023-08-21T08:54:15;7.90;;;6.73;;
43620;SDS011;29213;50.770;7.298;2023-08-21T08:56:42;7.80;;;6.95;;
43620;SDS011;29213;50.770;7.298;2023-08-21T08:59:07;7.28;;;6.43;;
43620;SDS011;29213;50.770;7.298;2023-08-21T09:01:33;8.75;;;6.85;;
43620;SDS011;29213;50.770;7.298;2023-08-21T09:03:58;7.68;;;6.47;;
43620;SDS011;29213;50.770;7.298;2023-08-21T09:06:23;8.20;;;6.32;;
43620;SDS011;29213;50.770;7.298;2023-08-21T09:08:55;6.55;;;5.88;;
43620;SDS011;29213;50.770;7.298;2023-08-21T09:11:22;7.30;;;5.75;;
43620;SDS011;29213;50.770;7.298;2023-08-21T09:13:48;6.45;;;5.70;;
43620;SDS011;29213;50.770;7.298;2023-08-21T09:16:15;8.15;;;6.20;;
43620;SDS011;29213;50.770;7.298;2023-08-21T09:21:15;7.18;;;5.80;;
43620;SDS011;29213;50.770;7.298;2023-08-21T09:23:41;7.05;;;5.82;;
43620;SDS011;29213;50.770;7.298;2023-08-21T09:26:07;7.20;;;6.50;;
43620;SDS011;29213;50.770;7.298;2023-08-21T09:28:32;8.70;;;6.05;;
43620;SDS011;29213;50.770;7.298;2023-08-21T09:30:58;8.15;;;5.65;;
43620;SDS011;29213;50.770;7.298;2023-08-21T09:33:24;7.60;;;6.03;;
43620;SDS011;29213;50.770;7.298;2023-08-21T09:35:52;6.75;;;5.63;;
43620;SDS011;29213;50.770;7.298;2023-08-21T09:38:18;5.78;;;5.03;;
43620;SDS011;29213;50.770;7.298;2023-08-21T09:40:51;7.28;;;5.75;;
43620;SDS011;29213;50.770;7.298;2023-08-21T09:43:18;6.25;;;5.15;;
43620;SDS011;29213;50.770;7.298;2023-08-21T09:45:46;7.03;;;5.50;;
43620;SDS011;29213;50.770;7.298;2023-08-21T09:48:12;6.35;;;5.20;;
43620;SDS011;29213;50.770;7.298;2023-08-21T09:50:38;7.63;;;5.75;;
43620;SDS011;29213;50.770;7.298;2023-08-21T09:53:06;6.70;;;4.95;;
43620;SDS011;29213;50.770;7.298;2023-08-21T09:55:32;5.50;;;4.70;;
43620;SDS011;29213;50.770;7.298;2023-08-21T09:57:58;6.20;;;5.03;;
43620;SDS011;29213;50.770;7.298;2023-08-21T10:00:31;5.53;;;4.85;;
43620;SDS011;29213;50.770;7.298;2023-08-21T10:03:02;6.32;;;4.70;;
43620;SDS011;29213;50.770;7.298;2023-08-21T10:05:32;6.35;;;4.13;;
43620;SDS011;29213;50.770;7.298;2023-08-21T10:08:03;6.38;;;4.53;;
43620;SDS011;29213;50.770;7.298;2023-08-21T10:10:30;5.82;;;4.60;;
43620;SDS011;29213;50.770;7.298;2023-08-21T10:12:57;6.97;;;4.40;;
43620;SDS011;29213;50.770;7.298;2023-08-21T10:15:24;6.78;;;4.80;;
43620;SDS011;29213;50.770;7.298;2023-08-21T10:17:49;8.02;;;4.50;;
43620;SDS011;29213;50.770;7.298;2023-08-21T10:20:15;5.32;;;4.60;;
43620;SDS011;29213;50.770;7.298;2023-08-21T10:22:52;7.63;;;5.22;;
43620;SDS011;29213;50.770;7.298;2023-08-21T10:25:25;5.85;;;4.53;;
43620;SDS011;29213;50.770;7.298;2023-08-21T10:27:54;6.30;;;4.50;;
43620;SDS011;29213;50.770;7.298;2023-08-21T10:30:22;6.00;;;4.85;;
43620;SDS011;29213;50.770;7.298;2023-08-21T10:32:52;7.13;;;4.78;;
43620;SDS011;29213;50.770;7.298;2023-08-21T10:35:22;6.95;;;4.60;;
43620;SDS011;29213;50.770;7.298;2023-08-21T10:40:36;9.65;;;5.68;;
43620;SDS011;29213;50.770;7.298;2023-08-21T10:45:28;6.45;;;4.90;;
43620;SDS011;29213;50.770;7.298;2023-08-21T10:48:00;8.15;;;5.55;;
43620;SDS011;29213;50.770;7.298;2023-08-21T10:50:26;6.57;;;5.03;;
43620;SDS011;29213;50.770;7.298;2023-08-21T10:52:52;7.22;;;5.05;;
43620;SDS011;29213;50.770;7.298;2023-08-21T10:55:19;7.05;;;5.40;;
43620;SDS011;29213;50.770;7.298;2023-08-21T10:57:48;7.07;;;5.13;;
43620;SDS011;29213;50.770;7.298;2023-08-21T11:00:15;7.10;;;5.10;;
43620;SDS011;29213;50.770;7.298;2023-08-21T11:02:45;8.48;;;5.50;;
43620;SDS011;29213;50.770;7.298;2023-08-21T11:05:12;8.45;;;5.65;;
43620;SDS011;29213;50.770;7.298;2023-08-21T11:07:39;6.97;;;5.07;;
43620;SDS011;29213;50.770;7.298;2023-08-21T11:10:10;7.47;;;6.03;;
43620;SDS011;29213;50.770;7.298;2023-08-21T11:12:38;7.40;;;6.30;;
43620;SDS011;29213;50.770;7.298;2023-08-21T11:15:12;7.10;;;6.25;;
43620;SDS011;29213;50.770;7.298;2023-08-21T11:17:38;10.25;;;7.07;;
43620;SDS011;29213;50.770;7.298;2023-08-21T11:20:03;8.65;;;6.57;;
43620;SDS011;29213;50.770;7.298;2023-08-21T11:22:31;9.30;;;6.70;;
43620;SDS011;29213;50.770;7.298;2023-08-21T11:24:57;9.27;;;7.63;;
43620;SDS011;29213;50.770;7.298;2023-08-21T11:27:22;7.95;;;6.25;;
43620;SDS011;29213;50.770;7.298;2023-08-21T11:29:49;7.80;;;6.25;;
43620;SDS011;29213;50.770;7.298;2023-08-21T11:32:17;8.02;;;6.30;;
43620;SDS011;29213;50.770;7.298;2023-08-21T11:34:47;7.20;;;6.05;;
43620;SDS011;29213;50.770;7.298;2023-08-21T11:37:16;10.48;;;6.85;;
43620;SDS011;29213;50.770;7.298;2023-08-21T11:39:49;7.55;;;6.60;;
43620;SDS011;29213;50.770;7.298;2023-08-21T11:42:15;11.07;;;7.10;;
43620;SDS011;29213;50.770;7.298;2023-08-21T11:47:16;7.20;;;5.10;;
43620;SDS011;29213;50.770;7.298;2023-08-21T11:49:42;6.57;;;4.43;;
43620;SDS011;29213;50.770;7.298;2023-08-21T11:52:12;6.63;;;4.40;;
43620;SDS011;29213;50.770;7.298;2023-08-21T11:54:38;6.63;;;4.10;;
43620;SDS011;29213;50.770;7.298;2023-08-21T11:57:13;5.45;;;3.80;;
43620;SDS011;29213;50.770;7.298;2023-08-21T11:59:39;6.82;;;4.00;;
43620;SDS011;29213;50.770;7.298;2023-08-21T12:02:24;5.22;;;3.70;;
43620;SDS011;29213;50.770;7.298;2023-08-21T12:04:53;6.35;;;3.60;;
43620;SDS011;29213;50.770;7.298;2023-08-21T12:07:25;7.75;;;4.10;;
43620;SDS011;29213;50.770;7.298;2023-08-21T12:09:51;5.35;;;4.40;;
43620;SDS011;29213;50.770;7.298;2023-08-21T12:12:16;5.68;;;4.72;;
43620;SDS011;29213;50.770;7.298;2023-08-21T12:14:42;6.47;;;3.90;;
43620;SDS011;29213;50.770;7.298;2023-08-21T12:17:07;6.63;;;4.53;;
43620;SDS011;29213;50.770;7.298;2023-08-21T12:19:32;6.28;;;4.10;;
43620;SDS011;29213;50.770;7.298;2023-08-21T12:21:58;5.40;;;4.18;;
43620;SDS011;29213;50.770;7.298;2023-08-21T12:24:24;5.80;;;4.40;;
43620;SDS011;29213;50.770;7.298;2023-08-21T12:26:49;6.05;;;4.13;;
43620;SDS011;29213;50.770;7.298;2023-08-21T12:29:15;6.70;;;4.10;;
43620;SDS011;29213;50.770;7.298;2023-08-21T12:31:40;5.82;;;3.88;;
43620;SDS011;29213;50.770;7.298;2023-08-21T12:34:06;6.40;;;3.55;;
43620;SDS011;29213;50.770;7.298;2023-08-21T12:36:33;6.53;;;4.15;;
43620;SDS011;29213;50.770;7.298;2023-08-21T12:39:02;5.97;;;3.65;;
43620;SDS011;29213;50.770;7.298;2023-08-21T12:41:29;5.43;;;3.10;;
43620;SDS011;29213;50.770;7.298;2023-08-21T12:43:54;5.07;;;3.47;;
43620;SDS011;29213;50.770;7.298;2023-08-21T12:46:20;6.97;;;3.80;;
43620;SDS011;29213;50.770;7.298;2023-08-21T12:48:45;6.88;;;4.10;;
43620;SDS011;29213;50.770;7.298;2023-08-21T12:51:10;5.03;;;3.50;;
43620;SDS011;29213;50.770;7.298;2023-08-21T12:53:36;7.88;;;3.75;;
43620;SDS011;29213;50.770;7.298;2023-08-21T12:56:01;6.15;;;3.60;;
43620;SDS011;29213;50.770;7.298;2023-08-21T12:58:28;6.60;;;3.53;;
43620;SDS011;29213;50.770;7.298;2023-08-21T13:00:54;5.65;;;3.20;;
43620;SDS011;29213;50.770;7.298;2023-08-21T13:03:19;5.57;;;3.42;;
43620;SDS011;29213;50.770;7.298;2023-08-21T13:05:45;10.23;;;3.88;;
43620;SDS011;29213;50.770;7.298;2023-08-21T13:08:10;6.72;;;3.75;;
43620;SDS011;29213;50.770;7.298;2023-08-21T13:10:36;6.95;;;3.83;;
43620;SDS011;29213;50.770;7.298;2023-08-21T13:13:01;7.32;;;3.72;;
43620;SDS011;29213;50.770;7.298;2023-08-21T13:15:28;6.10;;;3.75;;
43620;SDS011;29213;50.770;7.298;2023-08-21T13:17:53;5.75;;;3.45;;
43620;SDS011;29213;50.770;7.298;2023-08-21T13:20:19;7.93;;;3.70;;
43620;SDS011;29213;50.770;7.298;2023-08-21T13:22:45;7.15;;;4.03;;
43620;SDS011;29213;50.770;7.298;2023-08-21T13:25:13;6.22;;;3.47;;
43620;SDS011;29213;50.770;7.298;2023-08-21T13:27:39;5.30;;;3.58;;
43620;SDS011;29213;50.770;7.298;2023-08-21T13:30:04;8.90;;;5.00;;
43620;SDS011;29213;50.770;7.298;2023-08-21T13:32:30;6.32;;;4.00;;
43620;SDS011;29213;50.770;7.298;2023-08-21T13:34:56;6.00;;;4.28;;
43620;SDS011;29213;50.770;7.298;2023-08-21T13:37:21;6.22;;;3.80;;
43620;SDS011;29213;50.770;7.298;2023-08-21T13:39:47;7.80;;;5.07;;
43620;SDS011;29213;50.770;7.298;2023-08-21T13:42:13;7.45;;;4.47;;
43620;SDS011;29213;50.770;7.298;2023-08-21T13:44:38;7.32;;;4.00;;
43620;SDS011;29213;50.770;7.298;2023-08-21T13:47:04;6.47;;;3.90;;
43620;SDS011;29213;50.770;7.298;2023-08-21T13:49:29;8.38;;;4.60;;
43620;SDS011;29213;50.770;7.298;2023-08-21T13:51:55;5.85;;;3.60;;
43620;SDS011;29213;50.770;7.298;2023-08-21T13:54:20;6.38;;;3.20;;
43620;SDS011;29213;50.770;7.298;2023-08-21T13:56:45;6.50;;;3.40;;
43620;SDS011;29213;50.770;7.298;2023-08-21T13:59:11;4.68;;;3.35;;
43620;SDS011;29213;50.770;7.298;2023-08-21T14:01:36;5.53;;;3.80;;
43620;SDS011;29213;50.770;7.298;2023-08-21T14:04:01;8.18;;;4.10;;
43620;SDS011;29213;50.770;7.298;2023-08-21T14:06:27;7.32;;;3.90;;
43620;SDS011;29213;50.770;7.298;2023-08-21T14:08:54;6.05;;;3.65;;
43620;SDS011;29213;50.770;7.298;2023-08-21T14:11:20;7.13;;;4.20;;
43620;SDS011;29213;50.770;7.298;2023-08-21T14:13:45;6.43;;;3.50;;
43620;SDS011;29213;50.770;7.298;2023-08-21T14:16:11;5.25;;;3.28;;
43620;SDS011;29213;50.770;7.298;2023-08-21T14:18:36;5.95;;;3.45;;
43620;SDS011;29213;50.770;7.298;2023-08-21T14:21:02;6.88;;;3.78;;
43620;SDS011;29213;50.770;7.298;2023-08-21T14:23:28;5.35;;;3.20;;
43620;SDS011;29213;50.770;7.298;2023-08-21T14:25:53;6.13;;;3.05;;
43620;SDS011;29213;50.770;7.298;2023-08-21T14:28:18;5.95;;;3.17;;
43620;SDS011;29213;50.770;7.298;2023-08-21T14:30:44;4.85;;;2.65;;
43620;SDS011;29213;50.770;7.298;2023-08-21T14:33:10;4.97;;;2.70;;
43620;SDS011;29213;50.770;7.298;2023-08-21T14:35:36;5.18;;;2.75;;
43620;SDS011;29213;50.770;7.298;2023-08-21T14:38:02;4.80;;;3.00;;
43620;SDS011;29213;50.770;7.298;2023-08-21T14:40:28;4.68;;;3.05;;
43620;SDS011;29213;50.770;7.298;2023-08-21T14:42:53;6.60;;;3.08;;
43620;SDS011;29213;50.770;7.298;2023-08-21T14:45:18;4.95;;;2.78;;
43620;SDS011;29213;50.770;7.298;2023-08-21T14:47:44;3.78;;;2.67;;
43620;SDS011;29213;50.770;7.298;2023-08-21T14:50:09;4.43;;;2.70;;
43620;SDS011;29213;50.770;7.298;2023-08-21T14:52:35;5.28;;;2.60;;
43620;SDS011;29213;50.770;7.298;2023-08-21T14:55:01;5.05;;;2.60;;
43620;SDS011;29213;50.770;7.298;2023-08-21T14:57:26;4.38;;;2.55;;